Time;durP1;ratioP1;P1;durP2;ratioP2;P2;SDS_P1;SDS_P2;PMS_P1;PMS_P2;Temp;Humidity;BMP_temperature;BMP_pressure;BME280_temperature;BME280_humidity;BME280_pressure;Samples;Min_cycle;Max_cycle;Signal;HPM_P1;HPM_P2
2022/08/23 00:01:58;;;;;;;2.73;0.90;;;24.00;99.90;;;;;;5093275;28;20195;-70
2022/08/23 00:04:29;;;;;;;1.80;1.23;;;23.30;99.90;;;;;;5092533;28;20557;-70
2022/08/23 00:06:58;;;;;;;2.30;1.10;;;22.60;99.90;;;;;;5092850;28;20651;-68
2022/08/23 00:09:27;;;;;;;4.07;1.00;;;23.30;99.90;;;;;;5093705;28;20182;-72
2022/08/23 00:12:27;;;;;;;2.47;1.20;;;23.50;99.90;;;;;;5093624;28;20240;-72
2022/08/23 00:14:55;;;;;;;1.80;1.00;;;23.50;99.90;;;;;;5039249;28;20209;-73
2022/08/23 00:17:23;;;;;;;2.03;0.90;;;23.30;99.90;;;;;;5093343;28;20509;-73
2022/08/23 00:19:51;;;;;;;1.23;0.90;;;23.20;99.90;;;;;;5093581;28;20179;-70
2022/08/23 00:22:19;;;;;;;4.83;1.33;;;23.40;99.90;;;;;;5093448;28;20269;-72
2022/08/23 00:24:48;;;;;;;2.73;0.87;;;23.60;99.90;;;;;;5089919;28;20225;-72
2022/08/23 00:27:17;;;;;;;6.00;1.07;;;23.20;99.90;;;;;;5093101;28;20179;-70
2022/08/23 00:29:50;;;;;;;5.43;0.80;;;23.60;99.90;;;;;;5093120;28;20679;-68
2022/08/23 00:32:24;;;;;;;2.97;0.80;;;23.70;99.90;;;;;;5094005;28;20178;-68
2022/08/23 00:34:52;;;;;;;2.37;0.90;;;24.30;99.90;;;;;;5093069;28;20226;-69
2022/08/23 00:37:22;;;;;;;6.20;1.10;;;24.20;96.90;;;;;;5092953;28;20242;-70
2022/08/23 00:39:50;;;;;;;3.33;1.13;;;24.20;98.70;;;;;;5093099;28;20178;-71
2022/08/23 00:48:33;;;;;;;7.67;1.27;;;24.20;99.10;;;;;;5101768;28;20194;-67
2022/08/23 00:51:13;;;;;;;4.90;0.90;;;24.40;99.90;;;;;;5106259;28;20182;-68
2022/08/23 00:53:52;;;;;;;3.97;1.03;;;24.70;98.40;;;;;;5100920;28;20256;-68
2022/08/23 00:56:24;;;;;;;2.53;1.33;;;25.00;97.10;;;;;;5092435;28;20277;-69
2022/08/23 00:58:52;;;;;;;3.10;1.07;;;25.10;98.40;;;;;;5081837;28;20171;-70
2022/08/23 01:01:21;;;;;;;1.90;0.90;;;24.60;97.10;;;;;;5090358;28;20179;-72
2022/08/23 01:03:55;;;;;;;2.13;0.90;;;24.90;95.10;;;;;;5078383;28;20179;-72
2022/08/23 01:06:27;;;;;;;2.43;0.87;;;24.60;95.80;;;;;;5072369;28;20303;-71
2022/08/23 02:59:10;;;;;;;7.90;2.27;;;18.20;99.90;;;;;;4988806;28;20704;-72
2022/08/23 03:01:40;;;;;;;7.63;1.87;;;19.00;99.90;;;;;;4991685;28;20190;-71
2022/08/23 03:04:09;;;;;;;6.77;1.50;;;19.50;99.90;;;;;;4991933;28;20183;-72
2022/08/23 03:06:38;;;;;;;4.80;1.40;;;19.60;99.90;;;;;;4990531;28;20202;-72
2022/08/23 03:09:07;;;;;;;2.73;1.30;;;19.70;99.90;;;;;;4991730;28;20292;-72
2022/08/23 03:11:36;;;;;;;3.93;1.67;;;19.70;99.90;;;;;;4993601;28;20694;-71
2022/08/23 03:14:07;;;;;;;3.90;1.50;;;19.70;99.90;;;;;;4995305;28;20178;-72
2022/08/23 03:16:35;;;;;;;2.77;1.50;;;19.50;99.90;;;;;;4995266;28;20238;-71
2022/08/23 03:19:03;;;;;;;3.47;1.27;;;19.30;99.90;;;;;;4994932;28;20180;-71
2022/08/23 03:21:30;;;;;;;3.83;1.50;;;19.10;99.90;;;;;;4995059;28;20555;-71
2022/08/23 03:23:58;;;;;;;11.40;1.70;;;18.40;99.90;;;;;;4993197;28;20186;-72
2022/08/23 03:26:25;;;;;;;7.20;1.43;;;17.40;99.90;;;;;;4995322;28;20631;-71
2022/08/23 03:28:53;;;;;;;7.70;2.03;;;16.70;99.90;;;;;;4994862;28;20183;-71
2022/08/23 03:31:20;;;;;;;6.80;1.53;;;16.10;99.90;;;;;;4993434;28;20313;-72
2022/08/23 03:33:47;;;;;;;6.63;1.63;;;15.80;99.90;;;;;;4994852;28;20218;-72
2022/08/23 03:36:15;;;;;;;11.97;1.60;;;15.70;99.90;;;;;;4993343;28;20221;-73
2022/08/23 03:38:44;;;;;;;8.67;1.23;;;15.50;99.90;;;;;;4994708;28;20174;-72
2022/08/23 03:41:12;;;;;;;7.57;1.23;;;15.30;99.90;;;;;;4995052;28;20217;-71
2022/08/23 03:43:43;;;;;;;3.97;1.27;;;15.00;99.90;;;;;;4993538;28;20673;-71
2022/08/23 03:46:21;;;;;;;4.73;1.40;;;14.80;99.90;;;;;;4994770;28;20277;-71
2022/08/23 03:49:03;;;;;;;8.23;1.70;;;14.30;99.90;;;;;;4994492;28;20651;-72
2022/08/23 03:51:34;;;;;;;7.00;1.60;;;14.20;99.90;;;;;;4994529;28;20189;-71
2022/08/23 03:54:03;;;;;;;6.30;1.87;;;14.00;99.90;;;;;;4994386;28;20643;-71
2022/08/23 03:56:36;;;;;;;4.20;1.27;;;13.50;99.90;;;;;;4994333;28;20228;-71
2022/08/23 03:59:08;;;;;;;5.20;1.67;;;13.00;99.90;;;;;;5003210;28;20228;-70
2022/08/23 04:01:38;;;;;;;6.83;1.83;;;12.70;99.90;;;;;;4997019;28;20181;-72
2022/08/23 04:04:05;;;;;;;2.50;1.23;;;12.70;99.90;;;;;;5013009;28;20187;-71
2022/08/23 04:06:33;;;;;;;2.60;0.80;;;12.70;99.90;;;;;;4996103;28;20273;-71
2022/08/23 04:09:03;;;;;;;2.90;1.10;;;12.70;99.90;;;;;;4996072;28;20182;-71
2022/08/23 04:11:32;;;;;;;2.70;0.97;;;12.70;99.90;;;;;;4979868;28;20578;-70
2022/08/23 04:13:59;;;;;;;2.83;0.93;;;12.70;99.90;;;;;;5013784;28;20224;-72
2022/08/23 04:16:29;;;;;;;2.17;0.80;;;12.70;99.90;;;;;;5013343;28;20218;-72
2022/08/23 04:18:56;;;;;;;1.60;1.00;;;12.60;99.90;;;;;;4995827;28;20554;-71
2022/08/23 04:21:24;;;;;;;2.33;0.70;;;12.50;99.90;;;;;;5013077;28;20307;-71
2022/08/23 04:23:53;;;;;;;3.80;0.70;;;12.50;99.90;;;;;;4995940;28;20174;-72
2022/08/23 04:26:20;;;;;;;1.30;0.73;;;12.40;99.90;;;;;;5013283;28;20178;-71
2022/08/23 04:28:48;;;;;;;0.60;0.60;;;12.40;99.90;;;;;;5008577;28;20243;-71
2022/08/23 04:31:19;;;;;;;1.00;0.70;;;12.40;99.90;;;;;;5007928;28;20291;-71
2022/08/23 04:33:48;;;;;;;3.87;0.97;;;12.40;99.90;;;;;;5007263;28;20196;-71
2022/08/23 04:36:16;;;;;;;0.80;0.57;;;12.40;99.90;;;;;;4987857;28;20212;-71
2022/08/23 04:38:43;;;;;;;0.93;0.80;;;12.40;99.90;;;;;;4995517;28;20215;-71
2022/08/23 04:44:00;;;;;;;1.00;0.90;;;12.20;99.90;;;;;;4998067;28;20222;-70
2022/08/23 04:46:28;;;;;;;1.13;1.03;;;12.30;99.90;;;;;;4994994;28;20186;-73
2022/08/23 04:48:55;;;;;;;1.43;0.70;;;12.20;99.90;;;;;;5012942;28;20589;-71
2022/08/23 04:51:24;;;;;;;2.20;1.10;;;12.00;99.90;;;;;;4994736;28;20593;-70
2022/08/23 04:53:51;;;;;;;0.93;0.60;;;11.80;99.90;;;;;;4993301;28;20191;-70
2022/08/23 04:56:19;;;;;;;1.97;0.60;;;11.80;99.90;;;;;;5002960;28;20210;-70
2022/08/23 04:58:46;;;;;;;1.53;1.10;;;11.70;99.90;;;;;;5007034;28;20233;-69
2022/08/23 05:01:15;;;;;;;1.17;0.80;;;11.70;99.90;;;;;;4977974;28;20241;-70
2022/08/23 05:03:42;;;;;;;4.80;0.73;;;11.60;99.90;;;;;;4993022;28;20179;-71
2022/08/23 05:06:10;;;;;;;1.73;0.73;;;11.40;99.90;;;;;;4993027;28;20636;-70
2022/08/23 05:08:37;;;;;;;5.43;0.90;;;11.30;99.90;;;;;;4994208;28;20190;-71
2022/08/23 05:11:07;;;;;;;1.03;0.80;;;11.40;99.90;;;;;;4996295;28;20215;-70
2022/08/23 05:13:38;;;;;;;0.83;0.70;;;11.40;99.90;;;;;;4992903;28;20180;-72
2022/08/23 05:16:06;;;;;;;1.53;0.60;;;11.10;99.90;;;;;;4976307;28;20617;-71
2022/08/23 05:18:34;;;;;;;0.77;0.70;;;10.90;99.90;;;;;;4992690;28;20182;-71
2022/08/23 05:21:02;;;;;;;2.43;0.70;;;10.80;99.90;;;;;;4998990;28;20232;-70
2022/08/23 05:23:29;;;;;;;1.10;1.00;;;10.80;99.90;;;;;;5008922;28;20693;-70
2022/08/23 05:25:57;;;;;;;1.43;0.90;;;10.60;99.90;;;;;;4996448;28;20573;-71
2022/08/23 05:28:33;;;;;;;0.70;0.70;;;10.50;99.90;;;;;;5004365;28;20270;-70
2022/08/23 05:31:04;;;;;;;1.10;0.60;;;10.40;99.90;;;;;;5005271;28;20236;-69
2022/08/23 05:33:33;;;;;;;0.50;0.50;;;10.40;99.90;;;;;;5002526;28;20187;-71
2022/08/23 05:36:02;;;;;;;2.43;1.10;;;10.40;99.90;;;;;;5006360;28;20248;-68
2022/08/23 05:38:30;;;;;;;1.03;0.63;;;10.40;99.90;;;;;;5009856;28;20189;-69
2022/08/23 05:41:00;;;;;;;1.00;0.67;;;10.30;99.90;;;;;;4992820;28;20183;-71
2022/08/23 05:43:28;;;;;;;1.40;1.30;;;10.30;99.90;;;;;;4985423;28;20236;-70
2022/08/23 05:46:30;;;;;;;1.07;0.67;;;10.30;99.90;;;;;;4992280;28;20187;-69
2022/08/23 05:48:58;;;;;;;0.80;0.80;;;10.20;99.90;;;;;;4996850;28;20205;-71
2022/08/23 05:51:31;;;;;;;2.07;0.60;;;10.00;99.90;;;;;;5000754;28;20186;-69
2022/08/23 05:54:01;;;;;;;1.80;0.80;;;9.80;99.90;;;;;;5010715;28;20533;-70
2022/08/23 05:56:33;;;;;;;1.23;0.70;;;9.90;99.90;;;;;;4974675;28;20219;-70
2022/08/23 05:59:05;;;;;;;2.97;0.60;;;9.80;99.90;;;;;;4991983;28;20778;-71
2022/08/23 06:01:33;;;;;;;0.70;0.70;;;9.80;99.90;;;;;;4998164;28;20185;-70
2022/08/23 06:04:05;;;;;;;0.70;0.70;;;9.80;99.90;;;;;;4998827;28;20560;-71
2022/08/23 06:06:33;;;;;;;1.13;0.80;;;9.70;99.90;;;;;;4991925;28;20738;-71
2022/08/23 06:09:03;;;;;;;1.00;0.70;;;9.40;99.90;;;;;;4992124;28;20244;-71
2022/08/23 06:11:32;;;;;;;0.80;0.80;;;9.50;99.90;;;;;;4994120;28;20179;-69
2022/08/23 06:14:02;;;;;;;0.70;0.70;;;9.30;99.90;;;;;;5011605;28;20185;-69
2022/08/23 06:16:36;;;;;;;0.70;0.70;;;9.30;99.90;;;;;;5011814;28;20221;-69
2022/08/23 06:19:06;;;;;;;1.10;0.80;;;9.30;99.90;;;;;;5011657;28;20186;-68
2022/08/23 06:21:33;;;;;;;1.43;0.80;;;9.40;99.90;;;;;;5010142;28;20187;-71
2022/08/23 06:24:02;;;;;;;0.80;0.80;;;9.30;99.90;;;;;;4996830;28;20222;-70
2022/08/23 06:26:32;;;;;;;0.83;0.80;;;9.20;99.90;;;;;;4995834;28;20186;-71
2022/08/23 06:29:04;;;;;;;2.23;0.80;;;9.10;99.90;;;;;;5011672;28;20613;-71
2022/08/23 06:31:48;;;;;;;1.07;0.80;;;9.00;99.90;;;;;;5009460;28;20264;-68
2022/08/23 06:34:34;;;;;;;0.80;0.73;;;9.10;99.90;;;;;;4976963;28;20186;-72
2022/08/23 06:37:09;;;;;;;0.60;0.60;;;9.10;99.90;;;;;;4992859;28;20265;-70
2022/08/23 06:39:40;;;;;;;3.07;0.90;;;9.20;99.90;;;;;;4990428;28;20183;-73
2022/08/23 06:42:12;;;;;;;1.20;1.10;;;9.10;99.90;;;;;;4998494;28;20187;-71
2022/08/23 06:44:40;;;;;;;1.60;0.90;;;;;;;;;;4996270;28;20260;-70
2022/08/23 06:47:10;;;;;;;1.53;0.90;;;;;;;;;;4998641;28;20194;-69
2022/08/23 06:49:38;;;;;;;1.30;0.80;;;;;;;;;;5016044;28;20190;-70
2022/08/23 06:52:07;;;;;;;1.33;1.23;;;;;;;;;;5016216;28;20261;-70
2022/08/23 06:54:36;;;;;;;2.13;1.00;;;8.70;99.90;;;;;;4996698;28;20272;-67
2022/08/23 06:57:07;;;;;;;0.70;0.70;;;8.80;99.90;;;;;;5013773;28;20616;-73
2022/08/23 06:59:34;;;;;;;2.97;0.90;;;8.80;99.90;;;;;;4998729;28;20233;-70
2022/08/23 07:02:05;;;;;;;1.20;0.90;;;8.90;99.90;;;;;;4998485;28;20189;-72
2022/08/23 07:04:38;;;;;;;3.60;0.90;;;9.00;99.90;;;;;;5016289;28;20213;-68
2022/08/23 07:07:09;;;;;;;1.17;0.80;;;9.00;99.90;;;;;;5016122;28;20194;-72
2022/08/23 07:09:38;;;;;;;1.30;1.10;;;8.90;99.90;;;;;;5012498;28;20183;-71
2022/08/23 07:12:10;;;;;;;0.93;0.90;;;8.90;99.90;;;;;;4997420;28;20295;-72
2022/08/23 07:14:39;;;;;;;0.93;0.80;;;8.90;99.90;;;;;;4998707;28;20546;-73
2022/08/23 07:17:10;;;;;;;1.20;1.10;;;8.80;99.90;;;;;;5016036;28;20248;-71
2022/08/23 07:19:37;;;;;;;1.03;0.93;;;8.80;99.90;;;;;;5015939;28;20604;-71
2022/08/23 07:22:06;;;;;;;1.23;0.97;;;8.80;99.90;;;;;;5016077;28;20179;-71
2022/08/23 07:24:35;;;;;;;1.20;0.90;;;8.80;99.90;;;;;;5016498;28;20179;-71
2022/08/23 07:27:08;;;;;;;0.87;0.83;;;8.80;99.90;;;;;;5016113;28;20216;-71
2022/08/23 07:29:38;;;;;;;1.93;0.90;;;8.80;99.90;;;;;;5016267;28;20224;-72
2022/08/23 07:32:06;;;;;;;0.90;0.90;;;8.70;99.90;;;;;;5016006;28;20661;-70
2022/08/23 07:34:34;;;;;;;0.90;0.90;;;8.70;99.90;;;;;;5015937;28;20634;-72
2022/08/23 07:37:01;;;;;;;1.17;1.07;;;8.70;99.90;;;;;;5015680;28;20209;-71
2022/08/23 07:39:30;;;;;;;1.00;0.90;;;8.70;99.90;;;;;;4998028;28;20192;-70
2022/08/23 07:42:03;;;;;;;1.07;0.97;;;8.60;99.90;;;;;;5015732;28;20174;-71
2022/08/23 07:44:33;;;;;;;0.87;0.80;;;8.60;99.90;;;;;;5015953;28;20170;-72
2022/08/23 07:47:00;;;;;;;1.10;1.00;;;8.60;99.90;;;;;;4997805;28;20189;-71
2022/08/23 07:49:28;;;;;;;0.90;0.90;;;8.60;99.90;;;;;;5015916;28;20180;-70
2022/08/23 07:51:57;;;;;;;0.90;0.90;;;8.60;99.90;;;;;;5015605;28;20605;-71
2022/08/23 07:54:27;;;;;;;0.93;0.93;;;8.70;99.90;;;;;;5015547;28;20697;-73
2022/08/23 07:56:59;;;;;;;1.00;1.00;;;8.70;99.90;;;;;;5014683;28;20304;-73
2022/08/23 07:59:26;;;;;;;1.00;1.00;;;;;;;;;;5015196;28;20228;-71
2022/08/23 08:01:54;;;;;;;1.03;0.90;;;;;;;;;;5014792;28;20186;-71
2022/08/23 08:04:26;;;;;;;1.20;0.80;;;;;;;;;;5015399;28;20237;-72
2022/08/23 08:06:57;;;;;;;0.70;0.70;;;8.40;99.90;;;;;;4997740;28;20543;-74
2022/08/23 08:09:25;;;;;;;0.80;0.80;;;8.50;99.90;;;;;;4997605;28;20192;-72
2022/08/23 08:11:52;;;;;;;1.17;0.80;;;8.50;99.90;;;;;;5015536;28;20209;-70
2022/08/23 08:14:23;;;;;;;0.90;0.90;;;8.50;99.90;;;;;;5015325;28;20194;-70
2022/08/23 08:16:51;;;;;;;2.10;0.90;;;8.50;99.90;;;;;;5014944;28;20276;-71
2022/08/23 08:19:18;;;;;;;2.10;0.70;;;8.50;99.90;;;;;;5015119;28;20220;-70
2022/08/23 08:21:47;;;;;;;0.80;0.80;;;8.50;99.90;;;;;;5015025;28;20635;-71
2022/08/23 08:24:16;;;;;;;0.80;0.80;;;8.40;99.90;;;;;;5015036;28;20186;-72
2022/08/23 08:26:45;;;;;;;0.83;0.70;;;8.40;99.90;;;;;;5014938;28;20186;-71
2022/08/23 08:29:14;;;;;;;0.60;0.60;;;8.40;99.90;;;;;;5014969;28;20189;-70
2022/08/23 08:31:44;;;;;;;0.70;0.70;;;8.40;99.90;;;;;;4997806;28;20647;-72
2022/08/23 08:34:14;;;;;;;0.70;0.70;;;8.40;99.90;;;;;;5014794;28;20182;-71
2022/08/23 08:36:48;;;;;;;1.00;0.80;;;8.40;99.90;;;;;;4997845;28;20256;-71
2022/08/23 08:39:22;;;;;;;1.03;0.90;;;8.40;99.90;;;;;;5014715;28;20605;-70
2022/08/23 08:42:25;;;;;;;0.80;0.80;;;8.30;99.90;;;;;;5015056;28;20237;-71
2022/08/23 08:45:12;;;;;;;0.70;0.70;;;8.30;99.90;;;;;;5014790;28;20176;-72
2022/08/23 08:48:14;;;;;;;1.00;0.80;;;8.40;99.90;;;;;;5014847;28;20180;-72
2022/08/23 08:50:47;;;;;;;0.93;0.93;;;8.40;99.90;;;;;;5014630;28;20173;-71
2022/08/23 08:53:30;;;;;;;1.50;1.00;;;8.40;99.90;;;;;;5014496;28;20174;-69
2022/08/23 08:56:06;;;;;;;0.87;0.87;;;8.30;99.90;;;;;;5014828;28;20602;-70
2022/08/23 08:58:49;;;;;;;0.90;0.77;;;8.30;99.90;;;;;;5014516;28;20225;-71
2022/08/23 09:01:21;;;;;;;0.90;0.90;;;8.30;99.90;;;;;;5014589;28;20260;-72
2022/08/23 09:03:50;;;;;;;0.80;0.80;;;8.30;99.90;;;;;;5014656;28;20232;-72
2022/08/23 09:06:24;;;;;;;0.63;0.63;;;8.20;99.90;;;;;;4980099;28;20193;-72
2022/08/23 09:09:00;;;;;;;1.03;0.90;;;8.30;99.90;;;;;;5014392;28;20624;-71
2022/08/23 09:12:03;;;;;;;2.17;0.70;;;8.20;99.90;;;;;;5014043;28;20178;-70
2022/08/23 09:15:02;;;;;;;2.77;1.07;;;8.30;99.90;;;;;;5014224;28;20177;-70
2022/08/23 09:17:54;;;;;;;0.70;0.70;;;8.20;99.90;;;;;;5013934;28;20221;-71
2022/08/23 09:20:28;;;;;;;0.70;0.70;;;8.20;99.90;;;;;;5013798;28;20326;-71
2022/08/23 09:23:21;;;;;;;0.80;0.80;;;8.20;99.90;;;;;;5014548;28;20178;-70
2022/08/23 09:26:00;;;;;;;0.70;0.70;;;8.20;99.90;;;;;;5014038;28;20216;-71
2022/08/23 09:28:36;;;;;;;3.00;1.90;;;8.20;99.90;;;;;;5014594;28;20166;-71
2022/08/23 09:31:07;;;;;;;3.93;1.60;;;8.20;99.90;;;;;;5013659;28;20675;-70
2022/08/23 09:33:48;;;;;;;1.83;1.47;;;8.20;99.90;;;;;;5013900;28;20202;-70
2022/08/23 09:36:27;;;;;;;1.00;1.00;;;8.30;99.90;;;;;;5013540;28;20218;-71
2022/08/23 09:39:01;;;;;;;0.80;0.80;;;8.20;99.90;;;;;;5013559;28;20746;-71
2022/08/23 09:41:42;;;;;;;2.00;1.00;;;8.20;99.90;;;;;;5013359;28;20197;-70
2022/08/23 09:44:29;;;;;;;1.10;1.00;;;8.20;99.90;;;;;;5013420;28;20189;-70
2022/08/23 09:47:10;;;;;;;0.97;0.77;;;8.20;99.90;;;;;;5013845;28;20173;-71
2022/08/23 09:49:40;;;;;;;3.00;0.90;;;8.20;99.90;;;;;;4995787;28;20343;-71
2022/08/23 09:52:26;;;;;;;1.93;0.70;;;8.10;99.90;;;;;;4996369;28;20647;-71
2022/08/23 09:55:01;;;;;;;0.70;0.70;;;8.20;99.90;;;;;;5013735;28;20181;-72
2022/08/23 09:57:32;;;;;;;0.80;0.70;;;8.10;99.90;;;;;;4996543;28;20300;-71
2022/08/23 10:00:27;;;;;;;1.20;0.70;;;8.10;99.90;;;;;;5013226;28;20226;-71
2022/08/23 10:02:56;;;;;;;0.90;0.80;;;8.10;99.90;;;;;;5005310;28;20561;-72
2022/08/23 10:05:40;;;;;;;1.10;0.80;;;8.20;99.90;;;;;;5013455;28;20181;-73
2022/08/23 10:08:08;;;;;;;1.10;0.93;;;8.10;99.90;;;;;;5013457;28;20177;-71
2022/08/23 10:10:55;;;;;;;1.07;0.87;;;8.10;99.90;;;;;;5013494;28;20184;-71
2022/08/23 10:13:27;;;;;;;0.80;0.80;;;8.10;99.90;;;;;;5013547;28;20194;-70
2022/08/23 10:16:12;;;;;;;0.70;0.70;;;8.10;99.90;;;;;;5013458;28;20173;-72
2022/08/23 10:19:07;;;;;;;2.60;0.77;;;8.10;99.90;;;;;;5013941;28;20181;-71
2022/08/23 10:21:57;;;;;;;0.90;0.90;;;8.10;99.90;;;;;;5016957;28;20568;-71
2022/08/23 10:24:51;;;;;;;1.00;0.90;;;8.10;99.90;;;;;;5017230;28;20607;-71
2022/08/23 10:30:22;;;;;;;0.83;0.80;;;8.10;99.90;;;;;;5017316;28;20197;-71
2022/08/23 10:33:30;;;;;;;0.73;0.73;;;8.10;99.90;;;;;;5017124;28;20205;-71
2022/08/23 10:36:28;;;;;;;1.00;0.90;;;8.10;99.90;;;;;;5006797;28;20658;-70
2022/08/23 10:39:28;;;;;;;2.07;0.70;;;8.10;99.90;;;;;;5016987;28;20341;-71
2022/08/23 10:42:16;;;;;;;2.27;0.73;;;8.00;99.90;;;;;;5013806;28;20193;-70
2022/08/23 10:45:21;;;;;;;1.97;0.90;;;8.10;99.90;;;;;;5017309;28;20597;-71
2022/08/23 10:47:51;;;;;;;1.70;0.80;;;8.10;99.90;;;;;;4999848;28;20272;-70
2022/08/23 10:50:20;;;;;;;0.70;0.70;;;8.00;99.90;;;;;;5016705;28;20181;-71
2022/08/23 10:52:51;;;;;;;1.23;0.90;;;8.00;99.90;;;;;;5016780;28;20582;-70
2022/08/23 10:55:34;;;;;;;1.17;0.80;;;8.00;99.90;;;;;;5016797;28;20185;-72
2022/08/23 10:58:12;;;;;;;1.43;0.87;;;8.00;99.90;;;;;;5016215;28;20698;-70
2022/08/23 11:00:43;;;;;;;0.80;0.80;;;8.00;99.90;;;;;;4983521;28;20212;-72
2022/08/23 11:03:32;;;;;;;0.90;0.90;;;8.00;99.90;;;;;;4998120;28;20201;-71
2022/08/23 11:06:25;;;;;;;0.70;0.70;;;8.10;99.90;;;;;;5016640;28;20218;-71
2022/08/23 11:09:04;;;;;;;2.30;1.00;;;8.00;99.90;;;;;;5016598;28;20235;-70
2022/08/23 11:12:04;;;;;;;0.70;0.70;;;8.10;99.90;;;;;;5016526;28;20178;-72
2022/08/23 11:15:02;;;;;;;3.10;0.90;;;8.10;99.90;;;;;;5016851;28;20186;-72
2022/08/23 11:17:34;;;;;;;3.33;0.83;;;8.10;99.90;;;;;;5016762;28;20421;-72
2022/08/23 11:20:08;;;;;;;1.13;1.03;;;8.10;99.90;;;;;;5017791;28;20201;-71
2022/08/23 11:22:57;;;;;;;2.63;0.90;;;8.10;99.90;;;;;;4983233;28;20235;-72
2022/08/23 11:25:24;;;;;;;2.77;1.00;;;8.10;99.90;;;;;;4998233;28;20192;-71
2022/08/23 11:28:24;;;;;;;1.70;0.80;;;8.10;99.90;;;;;;5016330;28;20174;-71
2022/08/23 11:31:20;;;;;;;1.70;1.07;;;8.10;99.90;;;;;;5015731;28;20178;-70
2022/08/23 11:34:04;;;;;;;1.60;1.00;;;8.10;99.90;;;;;;5005598;28;20256;-71
2022/08/23 11:36:39;;;;;;;2.33;0.90;;;8.20;99.90;;;;;;5015785;28;20210;-72
2022/08/23 11:39:15;;;;;;;1.10;0.90;;;8.20;99.90;;;;;;5014204;28;20207;-71
2022/08/23 11:42:05;;;;;;;1.73;1.20;;;8.20;99.90;;;;;;4998344;28;20268;-71
2022/08/23 11:44:46;;;;;;;2.20;1.10;;;8.30;99.90;;;;;;5016012;28;20184;-71
2022/08/23 11:47:14;;;;;;;1.33;1.00;;;8.30;99.90;;;;;;4998300;28;20627;-71
2022/08/23 11:49:49;;;;;;;1.50;1.10;;;8.30;99.90;;;;;;5015622;28;20188;-72
2022/08/23 11:52:34;;;;;;;4.10;1.50;;;8.40;99.90;;;;;;5016461;28;20232;-71
2022/08/23 11:55:27;;;;;;;2.77;1.43;;;8.30;99.90;;;;;;4998025;28;20528;-70
2022/08/23 11:58:11;;;;;;;2.00;1.10;;;8.40;99.90;;;;;;5015642;28;20716;-72
2022/08/23 12:01:05;;;;;;;2.33;1.30;;;8.40;99.90;;;;;;5015523;28;20179;-71
2022/08/23 12:04:09;;;;;;;2.73;1.30;;;8.40;99.90;;;;;;5015647;28;20174;-71
2022/08/23 12:06:42;;;;;;;2.87;1.10;;;8.40;99.90;;;;;;4985315;28;20204;-70
2022/08/23 12:09:25;;;;;;;1.20;0.97;;;8.40;99.90;;;;;;5015957;28;20166;-72
2022/08/23 12:11:55;;;;;;;2.43;1.20;;;8.40;99.90;;;;;;5015101;28;20186;-71
2022/08/23 12:14:32;;;;;;;1.47;0.97;;;8.40;99.90;;;;;;5015138;28;20634;-69
2022/08/23 12:17:01;;;;;;;1.60;1.00;;;8.40;99.90;;;;;;5003784;28;20209;-67
2022/08/23 12:19:38;;;;;;;0.80;0.80;;;8.40;99.90;;;;;;5010395;28;20182;-71
2022/08/23 12:22:13;;;;;;;1.87;0.90;;;8.50;99.90;;;;;;5015027;28;20177;-70
2022/08/23 12:24:44;;;;;;;3.23;1.50;;;8.50;99.90;;;;;;5015172;28;20173;-71
2022/08/23 12:27:32;;;;;;;1.20;0.90;;;8.50;99.90;;;;;;5015115;28;20187;-68
2022/08/23 12:30:16;;;;;;;3.10;1.20;;;8.60;99.90;;;;;;4998207;28;20197;-70
2022/08/23 12:33:11;;;;;;;2.97;0.87;;;8.70;99.90;;;;;;5002900;28;20202;-68
2022/08/23 12:36:22;;;;;;;1.43;0.90;;;8.70;99.90;;;;;;5016806;28;20184;-71
2022/08/23 12:39:07;;;;;;;3.03;1.00;;;8.70;99.90;;;;;;4971226;28;20206;-71
2022/08/23 12:41:58;;;;;;;3.53;1.00;;;8.80;99.90;;;;;;4995175;28;20177;-70
2022/08/23 12:44:28;;;;;;;1.90;0.90;;;;;;;;;;4994773;28;20193;-73
2022/08/23 12:46:56;;;;;;;0.87;0.87;;;;;;;;;;4995185;28;20209;-73
2022/08/23 12:49:28;;;;;;;4.30;1.07;;;;;;;;;;4996072;28;20181;-74
2022/08/23 12:51:58;;;;;;;1.73;0.97;;;9.00;99.90;;;;;;4995361;28;20212;-71
2022/08/23 12:54:41;;;;;;;1.23;0.80;;;9.10;99.90;;;;;;4995026;28;20182;-73
2022/08/23 12:57:18;;;;;;;1.90;1.20;;;9.20;99.90;;;;;;4994930;28;20754;-72
2022/08/23 12:59:58;;;;;;;1.43;0.90;;;9.30;99.90;;;;;;5008179;28;20233;-73
2022/08/23 13:02:32;;;;;;;1.50;1.00;;;9.30;99.90;;;;;;5012709;28;20181;-73
2022/08/23 13:05:14;;;;;;;1.93;0.90;;;9.30;99.90;;;;;;4994750;28;20289;-73
2022/08/23 13:07:42;;;;;;;4.33;0.90;;;9.40;99.90;;;;;;4994795;28;20202;-72
2022/08/23 13:10:10;;;;;;;1.10;1.00;;;9.40;99.90;;;;;;5010995;28;20206;-73
2022/08/23 13:12:38;;;;;;;1.37;1.00;;;9.40;99.90;;;;;;5014342;28;20240;-72
2022/08/23 13:15:06;;;;;;;3.40;0.97;;;9.40;99.90;;;;;;5013744;28;20179;-69
2022/08/23 13:17:38;;;;;;;1.27;0.70;;;9.40;99.90;;;;;;5013704;28;20220;-69
2022/08/23 13:20:24;;;;;;;1.63;0.77;;;9.40;99.90;;;;;;5010077;28;20240;-73
2022/08/23 13:23:27;;;;;;;1.23;1.00;;;9.40;99.90;;;;;;5013989;28;20236;-70
2022/08/23 13:25:54;;;;;;;0.80;0.80;;;9.40;99.90;;;;;;5013997;28;20205;-69
2022/08/23 13:28:26;;;;;;;1.37;0.90;;;9.40;99.90;;;;;;5007395;28;20598;-70
2022/08/23 13:31:06;;;;;;;2.17;0.90;;;9.40;99.90;;;;;;4994169;28;20240;-73
2022/08/23 13:33:36;;;;;;;1.93;1.10;;;9.50;99.90;;;;;;4994832;28;20580;-71
2022/08/23 13:36:16;;;;;;;2.17;0.77;;;9.50;99.90;;;;;;4994115;28;20192;-69
2022/08/23 13:38:44;;;;;;;1.17;0.93;;;9.50;99.90;;;;;;5002362;28;20299;-72
2022/08/23 13:41:35;;;;;;;2.33;0.90;;;9.50;99.90;;;;;;5013706;28;20206;-72
2022/08/23 13:44:07;;;;;;;2.03;0.87;;;9.50;99.90;;;;;;5013952;28;20191;-74
2022/08/23 13:46:46;;;;;;;0.80;0.80;;;9.50;99.90;;;;;;5013440;28;20193;-72
2022/08/23 13:49:18;;;;;;;0.90;0.87;;;9.60;99.90;;;;;;4984096;28;20286;-73
2022/08/23 13:52:01;;;;;;;1.10;0.73;;;9.60;99.90;;;;;;4994073;28;20190;-73
2022/08/23 13:54:32;;;;;;;0.93;0.90;;;9.60;99.90;;;;;;4993758;28;20183;-68
2022/08/23 13:57:14;;;;;;;1.23;0.80;;;9.60;99.90;;;;;;4993836;28;20260;-68
2022/08/23 13:59:52;;;;;;;1.47;1.00;;;9.60;99.90;;;;;;4993627;28;20234;-72
2022/08/23 14:02:23;;;;;;;4.73;2.20;;;9.70;99.90;;;;;;4994292;28;20186;-73
2022/08/23 14:04:51;;;;;;;3.93;1.10;;;9.70;99.90;;;;;;4993723;28;20191;-69
2022/08/23 14:07:19;;;;;;;1.13;0.87;;;9.70;99.90;;;;;;4993937;28;20187;-71
2022/08/23 14:09:47;;;;;;;2.90;1.07;;;9.70;99.90;;;;;;5013348;28;20189;-72
2022/08/23 14:12:30;;;;;;;3.73;1.10;;;9.70;99.90;;;;;;5013061;28;20196;-72
2022/08/23 14:14:58;;;;;;;2.83;1.20;;;9.70;99.90;;;;;;5013361;28;20186;-69
2022/08/23 14:17:27;;;;;;;4.93;1.20;;;9.70;99.90;;;;;;5012160;28;20222;-70
2022/08/23 14:19:55;;;;;;;2.13;0.90;;;9.80;99.90;;;;;;4976094;28;20183;-72
2022/08/23 14:22:23;;;;;;;2.20;1.10;;;9.80;99.90;;;;;;4993825;28;20567;-73
2022/08/23 14:24:50;;;;;;;1.43;0.90;;;9.80;99.90;;;;;;4993550;28;20179;-69
2022/08/23 14:27:18;;;;;;;3.10;0.80;;;9.70;99.90;;;;;;4993613;28;20182;-71
2022/08/23 14:29:46;;;;;;;1.30;0.90;;;9.70;99.90;;;;;;4994106;28;20172;-73
2022/08/23 14:32:13;;;;;;;2.97;1.10;;;9.80;99.90;;;;;;4993636;28;20172;-74
2022/08/23 14:34:41;;;;;;;1.43;1.10;;;9.80;99.90;;;;;;4993488;28;20541;-74
2022/08/23 14:37:09;;;;;;;2.60;1.20;;;9.80;99.90;;;;;;4997143;28;20209;-69
2022/08/23 14:39:37;;;;;;;1.63;0.90;;;9.80;99.90;;;;;;5013105;28;20655;-71
2022/08/23 14:42:05;;;;;;;3.57;1.20;;;9.80;99.90;;;;;;5013145;28;20181;-73
2022/08/23 14:44:34;;;;;;;1.17;0.97;;;9.80;99.90;;;;;;5013072;28;20181;-73
2022/08/23 14:47:01;;;;;;;2.03;1.00;;;9.80;99.90;;;;;;5011610;28;20179;-72
2022/08/23 14:49:29;;;;;;;1.13;0.83;;;9.80;99.90;;;;;;4993595;28;20185;-73
2022/08/23 14:51:57;;;;;;;2.63;1.00;;;9.80;99.90;;;;;;4998537;28;20186;-70
2022/08/23 14:54:26;;;;;;;2.80;1.00;;;9.80;99.90;;;;;;4994175;28;20183;-68
2022/08/23 14:56:54;;;;;;;3.93;0.90;;;9.80;99.90;;;;;;5012139;28;20214;-73
2022/08/23 14:59:22;;;;;;;3.73;0.97;;;9.90;99.90;;;;;;5012484;28;20217;-73
2022/08/23 15:01:51;;;;;;;2.37;1.00;;;9.80;99.90;;;;;;5001866;28;20232;-69
2022/08/23 15:04:22;;;;;;;1.80;0.90;;;9.80;99.90;;;;;;4993308;28;20182;-70
2022/08/23 15:06:51;;;;;;;3.53;1.10;;;9.80;99.90;;;;;;4995456;28;20267;-69
2022/08/23 15:09:19;;;;;;;3.10;1.10;;;9.80;99.90;;;;;;4996844;28;20185;-68
2022/08/23 15:11:47;;;;;;;1.50;0.90;;;9.90;99.90;;;;;;5005530;28;20190;-72
2022/08/23 15:14:15;;;;;;;2.83;1.03;;;9.90;99.90;;;;;;5016438;28;20177;-70
2022/08/23 15:16:42;;;;;;;2.97;1.00;;;9.90;99.90;;;;;;5016208;28;20762;-72
2022/08/23 15:19:10;;;;;;;1.90;0.70;;;9.90;99.90;;;;;;5016325;28;20180;-72
2022/08/23 15:21:38;;;;;;;2.90;1.30;;;9.80;99.90;;;;;;5008167;28;20591;-72
2022/08/23 15:24:06;;;;;;;0.80;0.80;;;9.80;99.90;;;;;;4996488;28;20728;-68
2022/08/23 15:26:34;;;;;;;4.67;1.13;;;9.80;99.90;;;;;;4996642;28;20544;-72
2022/08/23 15:29:03;;;;;;;3.07;1.27;;;9.70;99.90;;;;;;4998274;28;20178;-69
2022/08/23 15:31:31;;;;;;;3.43;1.30;;;9.80;99.90;;;;;;5009123;28;20731;-69
2022/08/23 15:33:59;;;;;;;3.23;1.00;;;9.70;99.90;;;;;;4996261;28;20268;-71
2022/08/23 15:36:27;;;;;;;3.10;1.20;;;9.70;99.90;;;;;;4996189;28;20297;-73